Time;durP1;ratioP1;P1;durP2;ratioP2;P2;SDS_P1;SDS_P2;PMS_P1;PMS_P2;Temp;Humidity;BMP_temperature;BMP_pressure;BME280_temperature;BME280_humidity;BME280_pressure;Samples;Min_cycle;Max_cycle;Signal;HPM_P1;HPM_P2
2021/06/08 00:03:57;;;;;;;11.97;6.90;;;;;;;17.92;100.00;99525.28;10500312;28;20179;-77
2021/06/08 00:09:17;;;;;;;9.10;6.33;;;;;;;17.94;100.00;99524.84;10499766;28;20211;-79
2021/06/08 00:14:36;;;;;;;7.50;5.97;;;;;;;17.84;100.00;99518.34;10499639;28;20174;-79
2021/06/08 00:19:55;;;;;;;9.93;7.33;;;;;;;17.85;100.00;99519.91;10513900;28;20193;-80
2021/06/08 00:25:15;;;;;;;11.73;7.80;;;;;;;17.74;100.00;99519.38;10497793;28;20166;-76
2021/06/08 00:30:36;;;;;;;8.03;6.30;;;;;;;17.63;100.00;99520.88;10499724;28;20199;-79
2021/06/08 00:35:55;;;;;;;13.53;7.47;;;;;;;17.55;100.00;99516.72;10499179;28;20230;-79
2021/06/08 00:41:14;;;;;;;15.87;7.90;;;;;;;17.45;100.00;99519.75;10497346;28;20540;-78
2021/06/08 00:46:33;;;;;;;9.23;6.10;;;;;;;17.39;100.00;99525.06;10498484;28;20174;-80
2021/06/08 00:51:52;;;;;;;16.03;6.33;;;;;;;17.43;100.00;99522.97;10496269;28;20206;-77
2021/06/08 00:57:11;;;;;;;9.80;6.83;;;;;;;17.43;100.00;99519.41;10498942;28;20195;-79
2021/06/08 01:02:30;;;;;;;9.50;6.60;;;;;;;17.44;100.00;99516.19;10498852;28;20175;-79
2021/06/08 01:07:49;;;;;;;10.10;7.27;;;;;;;17.35;100.00;99512.44;10496540;28;20174;-78
2021/06/08 01:13:08;;;;;;;11.40;7.50;;;;;;;17.34;100.00;99508.09;10497664;28;20605;-77
2021/06/08 01:18:28;;;;;;;11.60;8.17;;;;;;;17.30;100.00;99513.75;10498317;28;20183;-78
2021/06/08 01:23:47;;;;;;;10.43;7.47;;;;;;;17.33;100.00;99512.09;10495801;28;20637;-79
2021/06/08 01:29:06;;;;;;;7.40;6.70;;;;;;;17.34;100.00;99508.09;10497970;28;20853;-81
2021/06/08 01:34:26;;;;;;;12.00;7.27;;;;;;;17.34;100.00;99511.69;10497401;28;20226;-78
2021/06/08 01:39:47;;;;;;;11.47;6.70;;;;;;;17.32;100.00;99513.31;10496575;28;20170;-77
2021/06/08 01:45:06;;;;;;;10.77;6.70;;;;;;;17.32;100.00;99507.78;10497670;28;20250;-77
2021/06/08 01:50:25;;;;;;;13.27;8.57;;;;;;;17.41;100.00;99510.69;10497370;28;20674;-76
2021/06/08 01:55:48;;;;;;;9.10;6.87;;;;;;;17.33;100.00;99504.53;10495744;28;20222;-78
2021/06/08 02:01:34;;;;;;;10.20;7.03;;;;;;;17.35;100.00;99515.22;10497149;28;20609;-76
2021/06/08 02:07:33;;;;;;;17.80;8.03;;;;;;;17.30;100.00;99505.41;10494812;28;20186;-77
2021/06/08 02:13:32;;;;;;;8.60;5.90;;;;;;;17.24;100.00;99504.31;10496539;28;20214;-77
2021/06/08 02:18:51;;;;;;;10.40;6.90;;;;;;;17.22;100.00;99508.75;10496496;28;20187;-76
2021/06/08 02:24:16;;;;;;;12.07;6.80;;;;;;;17.21;100.00;99504.41;10494486;28;20633;-79
2021/06/08 02:29:37;;;;;;;13.17;7.87;;;;;;;17.20;100.00;99509.22;10495736;28;20668;-76
2021/06/08 02:34:59;;;;;;;8.33;6.80;;;;;;;17.20;100.00;99512.00;10496099;28;20675;-77
2021/06/08 02:40:20;;;;;;;11.70;7.60;;;;;;;17.20;100.00;99523.09;10495311;28;20179;-77
2021/06/08 02:45:41;;;;;;;13.00;7.60;;;;;;;17.18;100.00;99519.16;10496513;28;20174;-76
2021/06/08 02:51:00;;;;;;;15.93;7.77;;;;;;;17.12;100.00;99516.13;10495023;28;20210;-77
2021/06/08 02:56:20;;;;;;;13.67;8.80;;;;;;;17.06;100.00;99528.97;10494911;28;20641;-76
2021/06/08 03:01:47;;;;;;;14.40;7.40;;;;;;;17.00;100.00;99525.16;10496034;28;20198;-76
2021/06/08 03:07:09;;;;;;;13.70;7.17;;;;;;;17.05;100.00;99526.63;10499791;28;20179;-76
2021/06/08 03:12:33;;;;;;;14.50;8.03;;;;;;;17.09;100.00;99538.44;10502780;28;20206;-77
2021/06/08 03:17:53;;;;;;;11.63;8.53;;;;;;;17.05;100.00;99541.31;10503087;28;20641;-76
2021/06/08 03:23:13;;;;;;;13.80;7.60;;;;;;;17.05;100.00;99544.09;10501455;28;20190;-76
2021/06/08 03:28:34;;;;;;;30.00;9.50;;;;;;;17.03;100.00;99540.16;10502559;28;20218;-77
2021/06/08 03:33:55;;;;;;;12.47;8.87;;;;;;;17.08;100.00;99539.69;10502041;28;20300;-77
2021/06/08 03:39:16;;;;;;;11.23;8.53;;;;;;;17.01;100.00;99551.72;10500793;28;20222;-78
2021/06/08 03:44:36;;;;;;;10.77;7.73;;;;;;;17.02;100.00;99555.28;10500999;28;20174;-76
2021/06/08 03:49:56;;;;;;;16.30;8.77;;;;;;;17.06;100.00;99561.56;10501669;28;20674;-77
2021/06/08 03:55:14;;;;;;;11.07;6.80;;;;;;;17.01;100.00;99564.84;10500282;28;20585;-77
2021/06/08 04:00:34;;;;;;;10.90;7.87;;;;;;;17.06;100.00;99556.00;10501399;28;20182;-76
2021/06/08 04:05:54;;;;;;;9.80;7.80;;;;;;;17.10;100.00;99562.25;10500177;28;20637;-77
2021/06/08 04:11:18;;;;;;;11.20;7.83;;;;;;;17.18;100.00;99563.66;10498191;28;20623;-75
2021/06/08 04:16:38;;;;;;;6.93;6.20;;;;;;;17.14;100.00;99560.19;10500369;28;20543;-76
2021/06/08 04:21:57;;;;;;;11.77;7.90;;;;;;;17.14;100.00;99566.53;10499313;28;20175;-76
2021/06/08 04:27:22;;;;;;;16.53;10.07;;;;;;;17.17;100.00;99570.44;10500289;28;20194;-76
2021/06/08 04:32:42;;;;;;;13.70;8.87;;;;;;;17.21;100.00;99565.59;10499388;28;20238;-75
2021/06/08 04:38:01;;;;;;;11.00;8.00;;;;;;;17.26;100.00;99582.53;10497623;28;20170;-76
2021/06/08 04:43:24;;;;;;;13.03;7.93;;;;;;;17.41;100.00;99578.25;10499979;28;20673;-79
2021/06/08 04:48:44;;;;;;;13.73;8.10;;;;;;;17.40;100.00;99582.25;10498242;28;20194;-78
2021/06/08 04:54:03;;;;;;;14.43;7.80;;;;;;;17.49;100.00;99585.22;10496779;28;20598;-82
2021/06/08 04:59:40;;;;;;;12.37;7.67;;;;;;;17.47;100.00;99581.31;10498902;28;20171;-78
2021/06/08 05:05:06;;;;;;;11.77;7.10;;;;;;;17.50;100.00;99581.22;10496588;28;20175;-79
2021/06/08 05:10:28;;;;;;;12.83;7.20;;;;;;;17.61;100.00;99581.72;10489807;28;20575;-81
2021/06/08 05:15:51;;;;;;;14.80;8.67;;;;;;;17.60;100.00;99591.31;10497383;28;20187;-80
2021/06/08 05:21:11;;;;;;;13.00;8.60;;;;;;;17.68;100.00;99585.13;10498105;28;20167;-80
2021/06/08 05:26:30;;;;;;;9.33;7.10;;;;;;;17.71;100.00;99586.28;10496447;28;20194;-78
2021/06/08 05:31:50;;;;;;;15.47;9.70;;;;;;;17.77;100.00;99590.88;10496190;28;20203;-77
2021/06/08 05:37:11;;;;;;;15.43;7.90;;;;;;;17.72;100.00;99583.06;10496691;28;20209;-78
2021/06/08 05:42:30;;;;;;;8.93;7.43;;;;;;;17.81;100.00;99591.56;10497138;28;20269;-78
2021/06/08 05:47:49;;;;;;;10.67;7.07;;;;;;;17.95;100.00;99580.09;10489252;28;20179;-80
2021/06/08 05:53:09;;;;;;;13.07;8.00;;;;;;;17.95;100.00;99591.22;10494568;28;20289;-80
2021/06/08 05:58:29;;;;;;;10.60;8.10;;;;;;;18.04;100.00;99591.41;10495576;28;20183;-81
2021/06/08 06:03:49;;;;;;;13.00;7.97;;;;;;;18.15;100.00;99593.91;10496426;28;20183;-80
2021/06/08 06:09:10;;;;;;;11.93;6.73;;;;;;;18.29;100.00;99591.56;10495839;28;20198;-80
2021/06/08 06:14:30;;;;;;;10.87;8.47;;;;;;;18.30;100.00;99600.69;10497046;28;20625;-78
2021/06/08 06:19:49;;;;;;;13.13;8.23;;;;;;;18.44;100.00;99596.31;10495969;28;20195;-79
2021/06/08 06:25:11;;;;;;;12.73;8.30;;;;;;;18.52;100.00;99592.09;10494642;28;20637;-77
2021/06/08 06:30:33;;;;;;;11.93;8.07;;;;;;;18.62;100.00;99593.81;10496278;28;20206;-81
2021/06/08 06:35:56;;;;;;;15.13;7.60;;;;;;;18.87;100.00;99591.13;10495964;28;20230;-78
2021/06/08 06:41:17;;;;;;;13.33;8.77;;;;;;;19.15;100.00;99595.09;10500815;28;20171;-81
2021/06/08 06:46:36;;;;;;;11.83;8.40;;;;;;;19.36;100.00;99593.22;10503683;28;20194;-76
2021/06/08 06:51:56;;;;;;;16.63;9.97;;;;;;;19.61;100.00;99589.66;10502360;28;20663;-77
2021/06/08 06:57:17;;;;;;;12.43;8.07;;;;;;;19.83;100.00;99590.53;10461366;28;20630;-77
2021/06/08 07:02:39;;;;;;;15.70;9.40;;;;;;;20.03;100.00;99587.06;10461374;28;20183;-78
2021/06/08 07:08:03;;;;;;;18.10;9.63;;;;;;;20.26;100.00;99583.88;10476058;28;20199;-76
2021/06/08 07:13:22;;;;;;;20.50;12.23;;;;;;;20.26;100.00;99588.69;10502699;28;20233;-76
2021/06/08 07:18:44;;;;;;;16.23;9.40;;;;;;;20.28;100.00;99581.41;10502804;28;20178;-79
2021/06/08 07:24:05;;;;;;;14.93;10.10;;;;;;;20.48;100.00;99586.69;10500674;28;20183;-78
2021/06/08 07:29:24;;;;;;;20.27;10.47;;;;;;;20.49;100.00;99593.84;10501500;28;20274;-79
2021/06/08 07:35:07;;;;;;;15.93;9.63;;;;;;;20.53;100.00;99598.06;10502134;28;20694;-79
2021/06/08 07:40:33;;;;;;;14.93;10.20;;;;;;;20.64;100.00;99587.31;10500932;28;20188;-77
2021/06/08 07:45:52;;;;;;;17.40;10.50;;;;;;;20.72;100.00;99596.22;10501992;28;20186;-79
2021/06/08 07:51:12;;;;;;;21.77;11.80;;;;;;;20.82;100.00;99590.28;10500032;28;20214;-77
2021/06/08 07:56:31;;;;;;;15.10;10.20;;;;;;;21.06;100.00;99603.31;10500392;28;20179;-80
2021/06/08 08:01:52;;;;;;;13.77;9.33;;;;;;;21.25;100.00;99601.41;10501194;28;20604;-77
2021/06/08 08:07:12;;;;;;;14.23;9.77;;;;;;;21.46;100.00;99606.19;10498691;28;20172;-81
2021/06/08 08:12:39;;;;;;;17.20;11.10;;;;;;;21.65;100.00;99603.03;10500144;28;20210;-78
2021/06/08 08:17:58;;;;;;;15.33;11.27;;;;;;;21.77;100.00;99602.13;10513112;28;20206;-79
2021/06/08 08:23:18;;;;;;;14.10;9.63;;;;;;;21.86;100.00;99607.78;10496186;28;20226;-81
2021/06/08 08:28:41;;;;;;;16.70;9.93;;;;;;;21.85;100.00;99604.19;10500298;28;20582;-76
2021/06/08 08:34:00;;;;;;;17.10;10.63;;;;;;;21.92;100.00;99605.94;10499582;28;20222;-80
2021/06/08 08:39:19;;;;;;;16.30;10.27;;;;;;;21.98;100.00;99610.44;10497796;28;20190;-80
2021/06/08 08:44:39;;;;;;;17.23;10.90;;;;;;;21.91;100.00;99607.94;10498091;28;20186;-78
2021/06/08 08:49:58;;;;;;;19.93;10.43;;;;;;;21.98;100.00;99607.66;10498021;28;20210;-77
2021/06/08 08:55:18;;;;;;;17.80;11.50;;;;;;;22.08;100.00;99597.25;10496960;28;20211;-79
2021/06/08 09:00:38;;;;;;;15.00;10.60;;;;;;;22.37;100.00;99604.03;10497768;28;20175;-79
2021/06/08 09:05:59;;;;;;;18.67;10.40;;;;;;;22.84;100.00;99598.75;10498093;28;20195;-79
2021/06/08 09:11:19;;;;;;;16.50;9.50;;;;;;;23.18;100.00;99589.97;10496727;28;20198;-77
2021/06/08 09:16:39;;;;;;;17.23;9.53;;;;;;;23.66;100.00;99598.06;10496915;28;20178;-79
2021/06/08 09:21:59;;;;;;;14.30;8.90;;;;;;;24.04;100.00;99592.59;10496791;28;21033;-78
2021/06/08 09:27:28;;;;;;;17.67;10.10;;;;;;;24.77;90.01;99589.56;10497212;28;20285;-76
2021/06/08 09:32:47;;;;;;;14.53;10.50;;;;;;;25.33;90.41;99592.16;10496232;28;20227;-78
2021/06/08 09:38:06;;;;;;;14.57;9.90;;;;;;;25.71;87.28;99587.16;10496330;28;20171;-78
2021/06/08 09:43:25;;;;;;;15.20;9.97;;;;;;;25.13;72.51;99590.03;10497642;28;20522;-77
2021/06/08 09:48:50;;;;;;;13.93;9.33;;;;;;;25.22;73.83;99583.53;10497289;28;20526;-77
2021/06/08 09:54:25;;;;;;;11.90;8.10;;;;;;;24.96;73.94;99586.09;10496205;28;20171;-77
2021/06/08 09:59:56;;;;;;;12.97;7.90;;;;;;;24.69;77.29;99582.00;10496450;28;20175;-78
2021/06/08 10:05:17;;;;;;;16.67;8.93;;;;;;;24.65;76.08;99585.00;10496949;28;20222;-77
2021/06/08 10:10:44;;;;;;;14.60;9.23;;;;;;;24.13;79.84;99587.72;10494856;28;20210;-80
2021/06/08 10:16:07;;;;;;;12.70;8.30;;;;;;;24.07;79.56;99591.66;10502758;28;20175;-78
2021/06/08 10:21:48;;;;;;;13.77;9.00;;;;;;;23.91;80.62;99589.25;10504281;28;20178;-77
2021/06/08 10:27:07;;;;;;;11.73;7.67;;;;;;;23.60;80.51;99592.31;10504182;28;20183;-79
2021/06/08 10:32:26;;;;;;;10.87;8.77;;;;;;;23.86;80.27;99587.09;10504046;28;20573;-78
2021/06/08 10:37:47;;;;;;;11.47;8.13;;;;;;;23.67;82.25;99586.34;10503332;28;20273;-79
2021/06/08 10:43:14;;;;;;;12.70;9.70;;;;;;;23.60;80.85;99580.31;10504298;28;20273;-78
2021/06/08 10:48:41;;;;;;;13.07;8.17;;;;;;;23.54;81.24;99577.38;10504174;28;20175;-78
2021/06/08 10:54:05;;;;;;;11.70;9.47;;;;;;;23.46;83.43;99570.53;10515629;28;20190;-80
2021/06/08 10:59:38;;;;;;;11.37;8.57;;;;;;;23.65;82.07;99562.81;10502669;28;20175;-78
2021/06/08 11:04:59;;;;;;;15.33;8.43;;;;;;;23.44;85.62;99559.00;10503676;28;20183;-81
2021/06/08 11:10:30;;;;;;;12.27;8.17;;;;;;;23.38;84.51;99566.50;10500610;28;20210;-78
2021/06/08 11:15:50;;;;;;;12.00;8.63;;;;;;;23.34;84.97;99565.88;10502145;28;20171;-77
2021/06/08 11:21:09;;;;;;;13.10;8.10;;;;;;;23.40;88.43;99566.81;10501936;28;20171;-78
2021/06/08 11:26:52;;;;;;;12.77;7.90;;;;;;;23.50;85.54;99567.56;10500426;28;20584;-78
2021/06/08 11:32:32;;;;;;;12.80;8.70;;;;;;;23.24;87.30;99562.81;10515336;28;20233;-81
2021/06/08 11:38:08;;;;;;;14.50;8.50;;;;;;;22.98;86.68;99567.22;10500784;28;20645;-79
2021/06/08 11:43:29;;;;;;;19.10;9.93;;;;;;;22.70;88.85;99560.88;10501065;28;20183;-78
2021/06/08 11:49:04;;;;;;;8.70;6.87;;;;;;;22.88;82.65;99560.84;10501008;28;20182;-81
2021/06/08 11:54:26;;;;;;;11.23;7.57;;;;;;;22.69;81.89;99552.94;10500556;28;20182;-77
2021/06/08 11:59:45;;;;;;;11.57;7.70;;;;;;;22.71;87.19;99551.22;10500749;28;20257;-76
2021/06/08 12:05:24;;;;;;;13.83;8.67;;;;;;;22.60;92.52;99544.53;10500535;28;20179;-76
2021/06/08 12:10:44;;;;;;;17.10;9.77;;;;;;;22.49;90.81;99542.16;10498329;28;20676;-76
2021/06/08 12:16:04;;;;;;;12.67;8.67;;;;;;;22.38;88.28;99541.09;10499705;28;20175;-75
2021/06/08 12:21:25;;;;;;;12.10;8.27;;;;;;;22.34;85.89;99537.69;10500454;28;20533;-77
2021/06/08 12:26:59;;;;;;;11.63;8.57;;;;;;;22.49;91.76;99538.59;10499344;28;20179;-76
2021/06/08 12:32:18;;;;;;;13.17;8.43;;;;;;;22.50;92.80;99526.91;10499462;28;20230;-75
2021/06/08 12:37:37;;;;;;;12.93;7.93;;;;;;;22.50;91.99;99520.53;10498454;28;20179;-77
2021/06/08 12:43:03;;;;;;;10.70;7.33;;;;;;;22.68;95.05;99512.88;10498231;28;20183;-77
2021/06/08 12:48:23;;;;;;;13.27;8.03;;;;;;;23.16;91.42;99497.03;10512674;28;20629;-77
2021/06/08 12:53:42;;;;;;;11.73;8.43;;;;;;;23.29;90.56;99494.78;10497351;28;20190;-76
2021/06/08 12:59:02;;;;;;;11.00;7.90;;;;;;;23.50;85.66;99500.16;10499082;28;20190;-77
2021/06/08 13:04:23;;;;;;;11.87;8.63;;;;;;;23.60;86.45;99482.00;10498944;28;20178;-78
2021/06/08 13:09:42;;;;;;;10.73;8.17;;;;;;;24.09;83.96;99480.25;10495791;28;20584;-77
2021/06/08 13:15:07;;;;;;;11.17;9.03;;;;;;;24.33;81.15;99484.59;10497610;28;20182;-77
2021/06/08 13:20:30;;;;;;;17.73;8.23;;;;;;;24.72;74.95;99480.50;10497335;28;20179;-80
2021/06/08 13:26:08;;;;;;;10.10;7.10;;;;;;;24.83;75.35;99482.72;10495869;28;20254;-78
2021/06/08 13:31:27;;;;;;;9.60;7.40;;;;;;;24.81;74.34;99473.97;10496813;28;20664;-78
2021/06/08 13:36:46;;;;;;;13.33;8.70;;;;;;;24.92;72.64;99479.81;10495748;28;20182;-79
2021/06/08 13:42:20;;;;;;;10.67;6.97;;;;;;;24.86;68.00;99473.31;10497652;28;20224;-80
2021/06/08 13:47:41;;;;;;;8.03;5.87;;;;;;;25.47;65.98;99473.81;10497146;28;20179;-80
2021/06/08 13:53:01;;;;;;;9.70;6.83;;;;;;;26.16;61.12;99459.66;10495786;28;20279;-78
2021/06/08 14:03:59;;;;;;;10.63;8.43;;;;;;;26.88;61.04;99448.63;10496539;28;20178;-80
2021/06/08 14:09:19;;;;;;;10.33;7.97;;;;;;;27.26;57.26;99431.22;10494770;28;20685;-80
2021/06/08 14:14:38;;;;;;;7.50;6.70;;;;;;;27.26;58.32;99433.28;10495751;28;20179;-81
2021/06/08 14:19:57;;;;;;;7.47;6.63;;;;;;;28.49;52.65;99433.63;10496895;28;20202;-81
2021/06/08 14:25:17;;;;;;;6.43;5.83;;;;;;;28.96;47.03;99438.31;10495752;28;20178;-78
2021/06/08 14:30:36;;;;;;;6.20;5.60;;;;;;;30.01;44.42;99443.31;10496451;28;20237;-80
2021/06/08 14:35:55;;;;;;;5.67;5.20;;;;;;;30.88;45.37;99435.56;10495116;28;20222;-78
2021/06/08 14:41:15;;;;;;;6.43;5.63;;;;;;;30.66;46.69;99432.91;10495384;28;20170;-81
2021/06/08 14:46:38;;;;;;;7.43;6.77;;;;;;;29.61;47.93;99426.13;10496480;28;20175;-78
2021/06/08 14:51:57;;;;;;;7.27;6.30;;;;;;;28.98;49.72;99429.31;10494835;28;20558;-81
2021/06/08 14:57:16;;;;;;;7.93;6.53;;;;;;;28.35;52.26;99428.19;10495231;28;20609;-79
2021/06/08 15:02:35;;;;;;;8.27;6.60;;;;;;;27.33;55.33;99432.81;10501199;28;20257;-78
2021/06/08 15:07:55;;;;;;;7.13;6.37;;;;;;;27.36;55.00;99446.72;10502258;28;20191;-76
2021/06/08 15:13:13;;;;;;;8.43;6.40;;;;;;;27.14;55.57;99466.31;10502773;28;20660;-77
2021/06/08 15:18:33;;;;;;;7.20;5.97;;;;;;;26.77;57.26;99473.94;10503106;28;20178;-79
2021/06/08 15:23:52;;;;;;;6.67;5.50;;;;;;;26.35;57.86;99469.34;10501710;28;20190;-77
2021/06/08 15:29:11;;;;;;;9.37;7.33;;;;;;;25.85;62.06;99467.97;10502505;28;20599;-78
2021/06/08 15:34:30;;;;;;;7.13;6.43;;;;;;;25.69;61.61;99471.31;10501192;28;20309;-77
2021/06/08 15:39:49;;;;;;;6.47;5.77;;;;;;;25.76;61.36;99459.66;10501108;28;20179;-78
2021/06/08 15:45:09;;;;;;;7.50;6.13;;;;;;;25.51;63.24;99457.50;10502163;28;20174;-76
2021/06/08 15:50:28;;;;;;;7.23;5.60;;;;;;;25.31;64.19;99463.09;10501500;28;20574;-77
2021/06/08 15:55:47;;;;;;;10.93;7.27;;;;;;;25.27;63.51;99462.53;10498744;28;20202;-77
2021/06/08 16:01:06;;;;;;;6.67;5.67;;;;;;;25.34;63.55;99464.94;10501332;28;20179;-78
2021/06/08 16:06:25;;;;;;;8.13;6.63;;;;;;;25.45;64.32;99465.06;10500214;28;20629;-77
2021/06/08 16:11:44;;;;;;;7.63;6.90;;;;;;;25.60;63.33;99462.22;10498769;28;20234;-77
2021/06/08 16:17:04;;;;;;;9.40;7.10;;;;;;;25.33;64.75;99471.03;10499727;28;20613;-77
2021/06/08 16:22:23;;;;;;;6.80;6.10;;;;;;;25.37;64.92;99469.56;10498242;28;20170;-76
2021/06/08 16:27:43;;;;;;;9.23;6.73;;;;;;;25.36;66.32;99462.38;10500392;28;20187;-76
2021/06/08 16:33:02;;;;;;;11.73;6.83;;;;;;;25.57;65.33;99480.09;10499483;28;20242;-76
2021/06/08 16:38:21;;;;;;;7.90;6.50;;;;;;;25.64;65.25;99477.66;10498858;28;20688;-76
2021/06/08 16:43:40;;;;;;;7.30;6.57;;;;;;;25.84;64.56;99470.03;10498566;28;20182;-77
2021/06/08 16:48:59;;;;;;;10.90;6.73;;;;;;;25.79;65.02;99464.31;10498107;28;20735;-77
2021/06/08 16:54:20;;;;;;;6.83;6.10;;;;;;;25.89;66.08;99465.72;10497898;28;20527;-76
2021/06/08 16:59:39;;;;;;;8.20;6.63;;;;;;;26.12;65.18;99450.63;10498770;28;20167;-76
2021/06/08 17:04:58;;;;;;;7.13;5.83;;;;;;;26.42;62.34;99449.97;10498445;28;20179;-77
2021/06/08 17:10:17;;;;;;;9.50;7.13;;;;;;;26.38;62.85;99452.19;10497301;28;20660;-77
2021/06/08 17:15:36;;;;;;;8.77;7.43;;;;;;;26.23;62.19;99459.22;10498485;28;20186;-78
2021/06/08 17:20:56;;;;;;;6.40;5.73;;;;;;;25.35;59.53;99460.84;10498432;28;20178;-76
2021/06/08 17:26:15;;;;;;;5.20;4.03;;;;;;;24.17;60.63;99458.97;10496527;28;20174;-77
2021/06/08 17:31:35;;;;;;;5.23;3.97;;;;;;;23.53;61.22;99471.88;10497595;28;20247;-76
2021/06/08 17:36:54;;;;;;;5.07;3.30;;;;;;;22.53;64.60;99480.34;10510079;28;20186;-76
2021/06/08 17:42:13;;;;;;;3.93;3.53;;;;;;;22.27;66.04;99481.91;10497785;28;20187;-75
2021/06/08 17:47:32;;;;;;;5.80;4.00;;;;;;;21.85;68.93;99500.56;10496708;28;20629;-76
2021/06/08 17:52:51;;;;;;;6.83;4.63;;;;;;;21.50;72.67;99494.84;10494724;28;20203;-74
2021/06/08 17:58:10;;;;;;;4.47;3.30;;;;;;;21.27;73.33;99495.38;10497544;28;20171;-77
2021/06/08 18:03:29;;;;;;;5.13;4.50;;;;;;;21.28;73.97;99471.75;10496388;28;20174;-75
2021/06/08 18:08:48;;;;;;;3.77;3.37;;;;;;;21.12;74.06;99483.19;10495160;28;20174;-76
2021/06/08 18:14:07;;;;;;;3.77;3.47;;;;;;;21.01;75.53;99496.81;10496242;28;20182;-75
2021/06/08 18:24:51;;;;;;;4.43;3.10;;;;;;;21.17;74.11;99496.56;10495162;28;20257;-76
2021/06/08 18:30:12;;;;;;;3.63;3.33;;;;;;;21.11;76.39;99506.81;10496640;28;20285;-76
2021/06/08 18:35:32;;;;;;;6.23;3.90;;;;;;;21.18;74.77;99506.53;10499344;28;20245;-75
2021/06/08 18:40:51;;;;;;;3.40;3.10;;;;;;;21.10;76.47;99506.06;10503349;28;20253;-76
2021/06/08 18:46:09;;;;;;;3.53;3.23;;;;;;;21.04;77.20;99496.69;10504469;28;20171;-76
2021/06/08 18:51:28;;;;;;;4.00;2.80;;;;;;;21.08;77.01;99504.97;10504031;28;20211;-75
2021/06/08 18:56:47;;;;;;;3.83;3.50;;;;;;;21.11;76.43;99504.03;10503543;28;20175;-76
2021/06/08 19:02:07;;;;;;;3.80;3.40;;;;;;;21.05;77.16;99515.03;10503951;28;20170;-76
2021/06/08 19:07:26;;;;;;;6.77;4.23;;;;;;;20.72;80.80;99518.69;10502422;28;20171;-77
2021/06/08 19:12:45;;;;;;;5.17;3.67;;;;;;;20.59;80.63;99523.59;10502980;28;20293;-77
2021/06/08 19:18:05;;;;;;;5.03;4.53;;;;;;;20.42;81.65;99524.22;10503282;28;20257;-77
2021/06/08 19:23:25;;;;;;;4.83;4.20;;;;;;;20.16;85.75;99523.56;10500862;28;20664;-76
2021/06/08 19:28:44;;;;;;;4.40;4.03;;;;;;;20.04;89.43;99529.19;10502896;28;20198;-77
2021/06/08 19:34:03;;;;;;;6.73;5.03;;;;;;;20.02;94.93;99526.06;10502330;28;20214;-77
2021/06/08 19:39:22;;;;;;;6.20;5.53;;;;;;;20.01;98.64;99530.09;10501077;28;20637;-77
2021/06/08 19:44:41;;;;;;;6.10;5.10;;;;;;;19.99;100.00;99542.94;10502436;28;20178;-77
2021/06/08 19:50:00;;;;;;;7.97;5.27;;;;;;;19.95;100.00;99550.69;10500956;28;20206;-76
2021/06/08 19:55:20;;;;;;;6.80;4.80;;;;;;;20.01;100.00;99546.84;10500555;28;20170;-76
2021/06/08 20:00:39;;;;;;;6.67;5.43;;;;;;;20.06;100.00;99540.69;10501673;28;20194;-75
2021/06/08 20:05:58;;;;;;;9.47;5.90;;;;;;;19.95;100.00;99536.72;10501359;28;20230;-76
2021/06/08 20:11:18;;;;;;;7.33;5.33;;;;;;;19.93;100.00;99542.69;10499829;28;20210;-76
2021/06/08 20:16:37;;;;;;;9.50;5.30;;;;;;;19.96;100.00;99555.00;10499960;28;20174;-75
2021/06/08 20:21:56;;;;;;;6.33;4.30;;;;;;;19.87;100.00;99563.28;10499563;28;20183;-74
2021/06/08 20:27:15;;;;;;;6.33;5.40;;;;;;;19.65;100.00;99559.63;10499524;28;20171;-76
2021/06/08 20:32:36;;;;;;;9.60;6.10;;;;;;;19.57;100.00;99564.66;10499668;28;20234;-76
2021/06/08 20:37:59;;;;;;;6.17;5.30;;;;;;;19.62;100.00;99554.94;10497768;28;20639;-75
2021/06/08 20:43:18;;;;;;;7.87;4.93;;;;;;;19.57;100.00;99555.50;10499963;28;20171;-75
2021/06/08 20:48:37;;;;;;;4.77;3.90;;;;;;;19.48;100.00;99563.75;10499847;28;20606;-76
2021/06/08 20:53:56;;;;;;;6.80;5.27;;;;;;;19.29;100.00;99557.19;10497448;28;20206;-76
2021/06/08 20:59:16;;;;;;;7.87;4.47;;;;;;;19.15;100.00;99562.41;10499262;28;20685;-77
2021/06/08 21:04:36;;;;;;;8.10;6.37;;;;;;;19.11;100.00;99560.94;10498951;28;20621;-75
2021/06/08 21:09:54;;;;;;;7.17;5.63;;;;;;;19.00;100.00;99558.44;10497334;28;20286;-75
2021/06/08 21:15:14;;;;;;;9.93;6.00;;;;;;;18.82;100.00;99563.00;10498528;28;20175;-76
2021/06/08 21:20:33;;;;;;;6.50;5.37;;;;;;;18.71;100.00;99565.28;10497519;28;20171;-76
2021/06/08 21:25:52;;;;;;;15.03;7.00;;;;;;;18.57;100.00;99565.72;10496962;28;20254;-77
2021/06/08 21:31:11;;;;;;;8.83;5.50;;;;;;;18.45;100.00;99563.66;10496973;28;20214;-76
2021/06/08 21:36:30;;;;;;;9.27;5.87;;;;;;;18.43;100.00;99554.97;10497285;28;20218;-77
2021/06/08 21:41:49;;;;;;;6.57;5.50;;;;;;;18.34;100.00;99551.22;10497291;28;20182;-76
2021/06/08 21:47:08;;;;;;;8.90;6.07;;;;;;;18.30;100.00;99547.78;10496523;28;20259;-76
2021/06/08 21:52:32;;;;;;;8.27;4.83;;;;;;;18.19;100.00;99553.59;10495836;28;20661;-76
2021/06/08 21:57:51;;;;;;;5.63;4.60;;;;;;;18.16;100.00;99543.34;10497635;28;20171;-79
2021/06/08 22:03:10;;;;;;;8.37;6.37;;;;;;;18.14;100.00;99548.56;10497460;28;20175;-79
2021/06/08 22:08:29;;;;;;;10.33;6.27;;;;;;;18.13;100.00;99554.56;10496196;28;20171;-77
2021/06/08 22:13:48;;;;;;;7.30;5.47;;;;;;;17.95;100.00;99557.03;10505363;28;20684;-79
2021/06/08 22:19:08;;;;;;;9.07;5.53;;;;;;;17.90;100.00;99557.56;10505866;28;20182;-77
2021/06/08 22:24:27;;;;;;;7.10;5.70;;;;;;;17.69;100.00;99564.44;10502799;28;20617;-77
2021/06/08 22:29:45;;;;;;;13.73;6.27;;;;;;;17.71;100.00;99564.81;10505286;28;20660;-77
2021/06/08 22:35:06;;;;;;;11.00;6.00;;;;;;;17.68;100.00;99562.13;10503511;28;20226;-77
2021/06/08 22:40:25;;;;;;;5.80;4.73;;;;;;;17.60;100.00;99560.72;10503370;28;20202;-78
2021/06/08 22:45:46;;;;;;;22.40;5.40;;;;;;;17.56;100.00;99565.56;10503609;28;20636;-77
2021/06/08 22:51:05;;;;;;;10.47;6.37;;;;;;;17.65;100.00;99565.75;10504204;28;20206;-77
2021/06/08 22:56:25;;;;;;;6.40;5.27;;;;;;;17.59;100.00;99567.50;10503000;28;20186;-76
2021/06/08 23:01:45;;;;;;;9.33;6.67;;;;;;;17.53;100.00;99555.31;10503915;28;20175;-77
2021/06/08 23:07:04;;;;;;;9.90;5.83;;;;;;;17.53;100.00;99552.53;10502412;28;20186;-77
2021/06/08 23:12:24;;;;;;;8.77;6.80;;;;;;;17.57;100.00;99550.44;10502156;28;20203;-77
2021/06/08 23:17:43;;;;;;;8.80;6.23;;;;;;;17.64;100.00;99542.72;10503527;28;20179;-77
2021/06/08 23:23:02;;;;;;;5.97;5.17;;;;;;;17.90;100.00;99552.00;10500628;28;20171;-78
2021/06/08 23:28:21;;;;;;;9.07;5.70;;;;;;;17.88;100.00;99548.88;10502884;28;20175;-77
2021/06/08 23:33:40;;;;;;;14.77;7.90;;;;;;;17.80;100.00;99544.69;10502086;28;20231;-77
2021/06/08 23:39:00;;;;;;;6.93;5.43;;;;;;;17.90;100.00;99540.88;10501221;28;20175;-78
2021/06/08 23:44:18;;;;;;;13.27;6.13;;;;;;;17.72;100.00;99541.31;10501467;28;20183;-79
2021/06/08 23:49:38;;;;;;;8.20;7.07;;;;;;;17.73;100.00;99534.50;10502041;28;20206;-79
2021/06/08 23:54:57;;;;;;;9.23;6.40;;;;;;;17.60;100.00;99530.13;10500680;28;20183;-78
